This is the latest recevied weather packets stored in our database for station/object N5WAY-13. If no packets are shown the sender has not sent any weather packets the latest 10 day(s).
| Time | Temp. | Humidity | Pressure | Rain* | Wind** | Luminosity | Snow |
|---|---|---|---|---|---|---|---|
| 1777470036 | 8.33° C | 22% | 1018.5 hPa | 0 mm | - | 129 W/m² | - |
| 1777463118 | 5° C | 24% | 1018.1 hPa | 0 mm | - | 0 W/m² | - |
| 1777459516 | 6.67° C | 20% | 1017.5 hPa | 0 mm | - | 0 W/m² | - |
| 1777458916 | 6.67° C | 20% | 1017.4 hPa | 0 mm | - | 0 W/m² | - |
| 1777457717 | 7.22° C | 21% | 1017.2 hPa | 0 mm | - | 0 W/m² | - |
| 1777455917 | 7.78° C | 20% | 1017.3 hPa | 0 mm | - | 0 W/m² | - |
| 1777455317 | 7.78° C | 19% | 1017.3 hPa | 0 mm | - | 0 W/m² | - |
| 1777452318 | 8.33° C | 18% | 1017.3 hPa | 0 mm | - | 0 W/m² | - |
| 1777447516 | 10.56° C | 16% | 1017.6 hPa | 0 mm | - | 0 W/m² | - |
| 1777445117 | 11.11° C | 16% | 1017.6 hPa | 0 mm | - | 0 W/m² | - |
| 1777443937 | 11.67° C | 16% | 1017.7 hPa | 0 mm | - | 0 W/m² | - |
| 1777440918 | 13.33° C | 15% | 1017.3 hPa | 0 mm | - | 0 W/m² | - |
| 1777438518 | 13.89° C | 14% | 1017.4 hPa | 0 mm | - | 0 W/m² | - |
| 1777429517 | 20° C | 10% | 1015.3 hPa | 0 mm | - | 0 W/m² | - |
| 1777428318 | 21.11° C | 9% | 1015 hPa | 0 mm | - | 1 W/m² | - |
| 1777425315 | 23.89° C | 8% | 1014.3 hPa | 0 mm | - | 38 W/m² | - |
| 1777424115 | 23.89° C | 8% | 1014.3 hPa | 0 mm | - | 59 W/m² | - |
| 1777411516 | 23.89° C | 9% | 1015.6 hPa | 0 mm | - | 899 W/m² | - |
| 1777399515 | 18.33° C | 18% | 1018.8 hPa | 0 mm | - | 1056 W/m² | - |
| 1777393517 | 16.11° C | 19% | 1019.4 hPa | 0 mm | - | 819 W/m² | - |
| 1777380316 | 5.56° C | 29% | 1018.4 hPa | 0 mm | - | 22 W/m² | - |
| 1777377915 | 6.11° C | 28% | 1017.5 hPa | 0 mm | - | 0 W/m² | - |
| 1777371316 | 10° C | 22% | 1016.3 hPa | 0 mm | - | 0 W/m² | - |
| 1777370116 | 10.56° C | 20% | 1016.2 hPa | 0 mm | - | 0 W/m² | - |
| 1777369537 | 10° C | 20% | 1016.1 hPa | 0 mm | - | 0 W/m² | - |
* Rain latest hour (hover to see other rain measurements)
** Current wind speed in m/s (hover to see current wind gust speed)